Time;durP1;ratioP1;P1;durP2;ratioP2;P2;SDS_P1;SDS_P2;PMS_P1;PMS_P2;Temp;Humidity;BMP_temperature;BMP_pressure;BME280_temperature;BME280_humidity;BME280_pressure;Samples;Min_cycle;Max_cycle;Signal;HPM_P1;HPM_P2
2023/08/30 00:00:21;;;;;;;14.55;12.73;;;13.90;99.90;;;;;;5119063;27;20075;-82
2023/08/30 00:02:47;;;;;;;14.57;13.15;;;13.90;99.90;;;;;;5136985;27;20051;-84
2023/08/30 00:05:13;;;;;;;14.25;11.75;;;13.80;99.90;;;;;;5118794;27;20104;-82
2023/08/30 00:07:39;;;;;;;12.68;11.45;;;13.80;99.90;;;;;;5137226;27;20047;-87
2023/08/30 00:10:07;;;;;;;12.48;11.27;;;13.80;99.90;;;;;;5136896;27;20368;-85
2023/08/30 00:12:32;;;;;;;14.07;12.65;;;13.70;99.90;;;;;;5118616;27;20105;-86
2023/08/30 00:14:58;;;;;;;13.57;12.15;;;13.60;99.90;;;;;;5118503;27;20491;-85
2023/08/30 00:17:24;;;;;;;13.60;12.20;;;13.60;99.90;;;;;;5119367;27;20043;-86
2023/08/30 00:19:50;;;;;;;13.57;12.23;;;13.60;99.90;;;;;;5136661;27;20126;-84
2023/08/30 00:22:16;;;;;;;14.30;12.82;;;13.60;99.90;;;;;;5136816;27;20055;-85
2023/08/30 00:24:42;;;;;;;13.48;12.07;;;13.50;99.90;;;;;;5136953;27;20054;-86
2023/08/30 00:27:07;;;;;;;14.90;13.35;;;13.50;99.90;;;;;;5137096;27;20051;-87
2023/08/30 00:29:33;;;;;;;14.13;12.43;;;13.50;99.90;;;;;;5136908;27;20464;-85
2023/08/30 00:31:59;;;;;;;12.90;11.52;;;13.50;99.90;;;;;;5119065;27;20050;-87
2023/08/30 00:34:25;;;;;;;16.08;13.68;;;13.50;99.90;;;;;;5136239;27;20070;-86
2023/08/30 00:36:51;;;;;;;16.58;14.23;;;13.50;99.90;;;;;;5136350;27;20119;-86
2023/08/30 00:39:17;;;;;;;16.00;14.05;;;13.40;99.90;;;;;;5118409;27;20084;-86
2023/08/30 00:41:42;;;;;;;14.43;13.00;;;13.40;99.90;;;;;;5136411;27;20055;-86
2023/08/30 00:44:08;;;;;;;14.82;13.18;;;13.40;99.90;;;;;;5136533;27;20114;-84
2023/08/30 00:46:34;;;;;;;15.18;13.68;;;13.40;99.90;;;;;;5136270;27;20445;-87
2023/08/30 00:49:00;;;;;;;14.18;12.68;;;13.30;99.90;;;;;;5136238;27;20043;-85
2023/08/30 00:51:27;;;;;;;14.85;12.70;;;13.30;99.90;;;;;;5118549;27;20099;-84
2023/08/30 00:53:55;;;;;;;14.98;13.20;;;13.30;99.90;;;;;;5136582;27;20081;-87
2023/08/30 00:56:21;;;;;;;15.13;12.60;;;13.30;99.90;;;;;;5136026;27;20081;-86
2023/08/30 00:58:49;;;;;;;15.52;13.85;;;13.30;99.90;;;;;;5118347;27;20051;-82
2023/08/30 01:01:16;;;;;;;17.05;15.30;;;13.30;99.90;;;;;;5135930;27;20139;-86
2023/08/30 01:03:41;;;;;;;15.35;13.77;;;13.30;99.90;;;;;;5136308;27;20054;-83
2023/08/30 01:06:07;;;;;;;16.40;14.00;;;13.30;99.90;;;;;;5135710;27;20051;-86
2023/08/30 01:08:35;;;;;;;14.18;12.32;;;13.30;99.90;;;;;;5117511;27;20130;-81
2023/08/30 01:11:05;;;;;;;20.17;16.02;;;13.30;99.90;;;;;;5135681;27;20054;-86
2023/08/30 01:13:35;;;;;;;13.75;12.35;;;13.30;99.90;;;;;;5135715;27;20096;-85
2023/08/30 01:16:02;;;;;;;16.27;14.07;;;13.30;99.90;;;;;;5117876;27;20106;-86
2023/08/30 01:18:34;;;;;;;16.90;15.05;;;13.30;99.90;;;;;;5118013;27;20520;-84
2023/08/30 01:21:03;;;;;;;16.90;14.95;;;13.30;99.90;;;;;;5136014;27;20043;-85
2023/08/30 01:23:48;;;;;;;19.95;16.10;;;13.30;99.90;;;;;;5135556;27;20043;-87
2023/08/30 01:26:39;;;;;;;16.15;14.18;;;13.30;99.90;;;;;;5117535;27;20043;-86
2023/08/30 01:29:08;;;;;;;16.88;15.13;;;13.30;99.90;;;;;;5135521;27;20066;-86
2023/08/30 01:31:35;;;;;;;17.92;14.98;;;13.20;99.90;;;;;;5135392;27;20043;-83
2023/08/30 01:34:04;;;;;;;15.45;13.93;;;13.20;99.90;;;;;;5117086;27;20097;-86
2023/08/30 01:36:31;;;;;;;16.67;15.00;;;13.10;99.90;;;;;;5135092;27;20071;-85
2023/08/30 01:38:59;;;;;;;16.70;13.93;;;13.10;99.90;;;;;;5135423;27;20038;-84
2023/08/30 01:41:27;;;;;;;14.25;12.85;;;13.10;99.90;;;;;;5135196;27;20063;-83
2023/08/30 01:43:54;;;;;;;17.60;13.80;;;13.10;99.90;;;;;;5135285;27;20051;-86
2023/08/30 01:46:21;;;;;;;15.07;13.27;;;13.10;99.90;;;;;;5135286;27;20054;-85
2023/08/30 01:48:48;;;;;;;19.13;15.52;;;13.10;99.90;;;;;;5134893;27;20119;-86
2023/08/30 01:51:18;;;;;;;15.40;13.80;;;13.10;99.90;;;;;;5134978;27;20039;-86
2023/08/30 01:53:45;;;;;;;16.48;14.35;;;13.10;99.90;;;;;;5135325;27;20095;-85
2023/08/30 01:56:11;;;;;;;17.27;14.90;;;13.10;99.90;;;;;;5134924;27;20051;-83
2023/08/30 01:58:37;;;;;;;16.95;13.43;;;13.20;99.90;;;;;;5133995;27;20045;-85
2023/08/30 02:01:03;;;;;;;17.00;13.70;;;13.20;99.90;;;;;;5139330;27;20043;-83
2023/08/30 02:03:28;;;;;;;18.38;15.55;;;13.20;99.90;;;;;;5125194;27;20487;-83
2023/08/30 02:06:14;;;;;;;13.98;12.57;;;13.20;99.90;;;;;;5144547;27;20043;-86
2023/08/30 02:09:15;;;;;;;16.27;13.70;;;13.20;99.90;;;;;;5126096;27;20049;-84
2023/08/30 02:11:45;;;;;;;15.18;12.63;;;13.20;99.90;;;;;;5134913;27;20477;-82
2023/08/30 02:14:15;;;;;;;15.35;13.55;;;13.20;99.90;;;;;;5147806;27;20087;-84
2023/08/30 02:16:42;;;;;;;14.73;12.30;;;13.10;99.90;;;;;;5147399;27;20043;-83
2023/08/30 02:19:08;;;;;;;15.35;12.68;;;13.10;99.90;;;;;;5146105;27;20055;-82
2023/08/30 02:21:34;;;;;;;13.60;12.30;;;13.10;99.90;;;;;;5119289;27;20057;-86
2023/08/30 02:24:00;;;;;;;14.82;13.25;;;13.00;99.90;;;;;;5116217;27;20078;-85
2023/08/30 02:26:25;;;;;;;13.70;12.32;;;13.00;99.90;;;;;;5134957;27;20058;-85
2023/08/30 02:28:51;;;;;;;13.82;12.25;;;12.90;99.90;;;;;;5134736;27;20051;-85
2023/08/30 02:31:17;;;;;;;14.60;13.10;;;12.90;99.90;;;;;;5116696;27;20470;-85
2023/08/30 02:33:42;;;;;;;13.40;11.50;;;12.90;99.90;;;;;;5134343;27;20078;-85
2023/08/30 02:36:08;;;;;;;14.50;12.05;;;12.80;99.90;;;;;;5115766;27;20051;-87
2023/08/30 02:38:34;;;;;;;13.13;11.73;;;12.80;99.90;;;;;;5134467;27;20039;-83
2023/08/30 02:40:59;;;;;;;13.70;11.90;;;12.70;99.90;;;;;;5134185;27;20061;-84
2023/08/30 02:43:25;;;;;;;12.80;11.48;;;12.70;99.90;;;;;;5099068;27;20100;-85
2023/08/30 02:45:52;;;;;;;14.50;12.30;;;12.60;99.90;;;;;;5133746;27;20051;-84
2023/08/30 02:48:18;;;;;;;16.02;12.30;;;12.60;99.90;;;;;;5134008;27;20118;-86
2023/08/30 02:50:43;;;;;;;13.60;12.15;;;12.50;99.90;;;;;;5115757;27;20085;-83
2023/08/30 02:53:09;;;;;;;11.88;9.98;;;12.50;99.90;;;;;;5115467;27;20043;-85
2023/08/30 02:55:35;;;;;;;12.93;10.38;;;12.50;99.90;;;;;;5134526;27;20039;-86
2023/08/30 02:58:01;;;;;;;14.38;12.38;;;12.50;99.90;;;;;;5133945;27;20047;-85
2023/08/30 03:00:27;;;;;;;13.57;12.10;;;12.50;99.90;;;;;;5134049;27;20170;-86
2023/08/30 03:02:52;;;;;;;14.30;11.82;;;12.40;99.90;;;;;;5133876;27;20118;-85
2023/08/30 03:05:18;;;;;;;14.50;12.90;;;12.40;99.90;;;;;;5115950;27;20047;-84
2023/08/30 03:07:44;;;;;;;13.07;11.68;;;12.40;99.90;;;;;;5115818;27;20059;-84
2023/08/30 03:10:11;;;;;;;13.73;12.32;;;12.40;99.90;;;;;;5133618;27;20095;-83
2023/08/30 03:12:36;;;;;;;14.23;12.75;;;12.40;99.90;;;;;;5133737;27;20503;-84
2023/08/30 03:15:04;;;;;;;13.65;11.60;;;12.40;99.90;;;;;;5133575;27;20043;-84
2023/08/30 03:17:29;;;;;;;14.52;13.02;;;12.40;99.90;;;;;;5116123;28;20043;-85
2023/08/30 03:19:55;;;;;;;13.98;11.68;;;12.40;99.90;;;;;;5133602;28;20043;-84
2023/08/30 03:22:21;;;;;;;15.48;12.27;;;12.50;99.90;;;;;;5115540;28;20066;-85
2023/08/30 03:24:47;;;;;;;11.85;10.55;;;12.50;99.90;;;;;;5133471;28;20534;-86
2023/08/30 03:27:13;;;;;;;14.27;12.50;;;12.50;99.90;;;;;;5133407;28;20104;-84
2023/08/30 03:29:38;;;;;;;15.20;11.52;;;12.50;99.90;;;;;;5133488;28;20353;-84
2023/08/30 03:32:04;;;;;;;13.52;11.63;;;12.60;99.90;;;;;;5133931;28;20051;-86
2023/08/30 03:34:30;;;;;;;13.25;11.05;;;12.60;99.90;;;;;;5133735;28;20062;-85
2023/08/30 03:36:56;;;;;;;11.68;10.48;;;12.60;99.90;;;;;;5133204;28;20047;-85
2023/08/30 03:39:22;;;;;;;11.40;10.20;;;12.60;99.90;;;;;;5133072;28;20155;-83
2023/08/30 03:41:48;;;;;;;13.98;12.57;;;12.60;99.90;;;;;;5133493;28;20043;-83
2023/08/30 03:44:13;;;;;;;14.27;11.25;;;12.60;99.90;;;;;;5133218;28;20091;-80
2023/08/30 03:46:39;;;;;;;11.50;10.38;;;12.50;99.90;;;;;;5133488;28;20463;-80
2023/08/30 03:49:05;;;;;;;14.35;11.98;;;12.50;99.90;;;;;;5133587;28;20045;-80
2023/08/30 03:51:30;;;;;;;11.32;10.13;;;12.50;99.90;;;;;;5133841;28;20055;-80
2023/08/30 03:53:56;;;;;;;16.20;12.70;;;12.50;99.90;;;;;;5133048;28;20047;-80
2023/08/30 03:56:22;;;;;;;12.38;11.13;;;12.50;99.90;;;;;;5115175;28;20111;-80
2023/08/30 03:58:48;;;;;;;12.82;11.25;;;12.40;99.90;;;;;;5132925;28;20047;-80
2023/08/30 04:01:14;;;;;;;12.40;11.13;;;12.40;99.90;;;;;;5132757;28;20066;-80
2023/08/30 04:03:40;;;;;;;11.15;9.88;;;12.40;99.90;;;;;;5133556;28;20079;-80
2023/08/30 04:06:05;;;;;;;15.27;12.88;;;12.30;99.90;;;;;;5132946;28;20039;-80
2023/08/30 04:08:32;;;;;;;14.95;12.73;;;12.30;99.90;;;;;;5133300;28;20039;-79
2023/08/30 04:10:57;;;;;;;13.57;12.18;;;12.30;99.90;;;;;;5132907;28;20043;-80
2023/08/30 04:13:23;;;;;;;14.07;12.40;;;12.20;99.90;;;;;;5132817;28;20047;-80
2023/08/30 04:15:49;;;;;;;13.35;12.02;;;12.20;99.90;;;;;;5132647;28;20046;-80
2023/08/30 04:18:14;;;;;;;12.73;11.48;;;12.20;99.90;;;;;;5132728;28;20044;-80
2023/08/30 04:20:45;;;;;;;13.27;11.77;;;12.20;99.90;;;;;;5132720;27;20090;-80
2023/08/30 04:23:11;;;;;;;14.95;13.38;;;12.10;99.90;;;;;;5101200;27;20050;-80
2023/08/30 04:25:36;;;;;;;14.27;12.52;;;12.10;99.90;;;;;;5136121;27;20055;-80
2023/08/30 04:28:02;;;;;;;19.08;12.73;;;12.10;99.90;;;;;;5136851;27;20554;-80
2023/08/30 04:30:28;;;;;;;13.43;12.02;;;12.10;99.90;;;;;;5136944;27;20545;-80
2023/08/30 04:32:54;;;;;;;14.98;12.80;;;12.00;99.90;;;;;;5136335;27;20047;-80
2023/08/30 04:35:20;;;;;;;16.58;14.20;;;12.00;99.90;;;;;;5136074;27;20059;-80
2023/08/30 04:37:46;;;;;;;13.88;11.98;;;12.00;99.90;;;;;;5118219;27;20047;-80
2023/08/30 04:40:12;;;;;;;12.80;11.43;;;12.00;99.90;;;;;;5118242;27;20051;-80
2023/08/30 04:42:39;;;;;;;15.45;12.73;;;12.00;99.90;;;;;;5136189;27;20050;-80
2023/08/30 04:45:06;;;;;;;19.10;13.68;;;12.00;99.90;;;;;;5136195;27;20115;-80
2023/08/30 04:47:32;;;;;;;16.15;12.82;;;12.00;99.90;;;;;;5117695;27;20375;-80
2023/08/30 04:49:58;;;;;;;15.15;11.40;;;12.00;99.90;;;;;;5136442;27;20058;-80
2023/08/30 04:52:24;;;;;;;14.63;13.05;;;12.10;99.90;;;;;;5117961;27;20458;-80
2023/08/30 04:54:49;;;;;;;12.57;11.02;;;12.10;99.90;;;;;;5117836;27;20076;-80
2023/08/30 04:57:16;;;;;;;15.55;13.48;;;12.10;99.90;;;;;;5135874;27;20039;-80
2023/08/30 04:59:45;;;;;;;18.73;12.88;;;12.10;99.90;;;;;;5118010;27;20364;-80
2023/08/30 05:02:11;;;;;;;12.82;11.15;;;12.10;99.90;;;;;;5136377;27;20089;-79
2023/08/30 05:04:37;;;;;;;18.88;13.40;;;12.10;99.90;;;;;;5135473;27;20368;-79
2023/08/30 05:07:04;;;;;;;14.60;12.57;;;12.10;99.90;;;;;;5135393;27;20051;-79
2023/08/30 05:09:34;;;;;;;16.65;12.77;;;12.20;99.90;;;;;;5135696;27;20054;-80
2023/08/30 05:12:00;;;;;;;17.77;13.10;;;12.20;99.90;;;;;;5135707;27;20054;-80
2023/08/30 05:14:26;;;;;;;14.65;12.98;;;12.20;99.90;;;;;;5136043;27;20043;-80
2023/08/30 05:16:52;;;;;;;13.70;12.30;;;12.20;99.90;;;;;;5135553;27;20058;-80
2023/08/30 05:19:18;;;;;;;16.00;13.27;;;12.20;99.90;;;;;;5100763;27;20047;-80
2023/08/30 05:21:44;;;;;;;13.77;12.15;;;12.30;99.90;;;;;;5135900;27;20122;-79
2023/08/30 05:24:10;;;;;;;14.25;12.75;;;12.30;99.90;;;;;;5117696;27;20440;-79
2023/08/30 05:26:36;;;;;;;14.25;12.75;;;12.40;99.90;;;;;;5135605;27;20059;-80
2023/08/30 05:29:02;;;;;;;14.25;12.27;;;12.40;99.90;;;;;;5135368;27;20563;-80
2023/08/30 05:31:28;;;;;;;16.08;12.07;;;12.50;99.90;;;;;;5116914;27;20039;-80
2023/08/30 05:33:53;;;;;;;14.65;11.00;;;12.50;99.90;;;;;;5133951;27;20122;-80
2023/08/30 05:36:19;;;;;;;15.77;11.57;;;12.60;99.90;;;;;;5134746;27;20039;-80
2023/08/30 05:38:45;;;;;;;14.45;11.82;;;12.60;99.90;;;;;;5135457;27;20043;-79
2023/08/30 05:41:10;;;;;;;15.20;11.57;;;12.60;99.90;;;;;;5135168;27;20125;-76
2023/08/30 05:43:36;;;;;;;15.02;12.00;;;12.70;99.90;;;;;;5135637;27;20039;-81
2023/08/30 05:46:02;;;;;;;11.77;10.43;;;12.70;99.90;;;;;;5134897;27;20130;-81
2023/08/30 05:48:29;;;;;;;13.27;11.40;;;12.70;99.90;;;;;;5117406;27;20059;-81
2023/08/30 05:50:55;;;;;;;15.20;11.45;;;12.80;99.90;;;;;;5139381;27;20039;-80
2023/08/30 05:53:21;;;;;;;14.23;11.60;;;12.90;99.90;;;;;;5141757;27;20088;-81
2023/08/30 05:55:46;;;;;;;12.05;10.73;;;13.00;99.90;;;;;;5139497;27;20073;-82
2023/08/30 05:58:13;;;;;;;13.70;11.20;;;13.10;99.90;;;;;;5119305;27;20066;-81
2023/08/30 06:00:39;;;;;;;13.27;11.80;;;13.10;99.90;;;;;;5134791;27;20459;-82
2023/08/30 06:03:05;;;;;;;12.98;10.82;;;13.20;99.90;;;;;;5135468;27;20085;-81
2023/08/30 06:05:30;;;;;;;12.83;10.03;;;13.30;99.90;;;;;;5134785;27;20047;-81
2023/08/30 06:07:57;;;;;;;14.85;10.65;;;13.30;99.90;;;;;;5134962;27;20047;-81
2023/08/30 06:10:23;;;;;;;14.40;10.60;;;13.30;99.90;;;;;;5134827;27;20051;-81
2023/08/30 06:12:49;;;;;;;10.95;9.85;;;13.40;99.90;;;;;;5134562;27;20125;-81
2023/08/30 06:15:15;;;;;;;12.57;10.40;;;13.40;99.90;;;;;;5134518;27;20138;-82
2023/08/30 06:17:40;;;;;;;16.48;10.65;;;13.50;99.90;;;;;;5134569;27;20046;-80
2023/08/30 06:20:07;;;;;;;11.75;9.30;;;13.50;99.90;;;;;;5134794;27;20043;-81
2023/08/30 06:22:32;;;;;;;14.57;10.25;;;13.60;99.90;;;;;;5135074;27;20051;-81
2023/08/30 06:24:58;;;;;;;11.45;10.25;;;13.70;99.90;;;;;;5134576;27;20069;-82
2023/08/30 06:27:24;;;;;;;11.10;9.65;;;13.70;99.90;;;;;;5134641;27;20043;-82
2023/08/30 06:29:50;;;;;;;12.77;9.60;;;13.80;99.90;;;;;;5116064;27;20043;-82
2023/08/30 06:32:16;;;;;;;13.65;10.48;;;13.90;99.90;;;;;;5133972;27;20047;-82
2023/08/30 06:34:42;;;;;;;15.05;9.98;;;14.00;99.90;;;;;;5134074;27;20053;-81
2023/08/30 06:37:08;;;;;;;12.55;9.98;;;14.00;99.90;;;;;;5134019;27;20489;-80
2023/08/30 06:39:36;;;;;;;13.55;9.57;;;14.10;99.90;;;;;;5134449;27;20054;-81
2023/08/30 06:42:05;;;;;;;13.25;9.93;;;14.30;99.90;;;;;;5133967;27;20459;-80
2023/08/30 06:44:30;;;;;;;13.25;10.48;;;13.90;99.90;;;;;;5115887;27;20039;-81
2023/08/30 06:46:59;;;;;;;14.77;10.25;;;14.60;99.90;;;;;;5133767;27;20462;-81
2023/08/30 06:49:24;;;;;;;13.40;10.18;;;14.70;99.90;;;;;;5134306;27;20083;-82
2023/08/30 06:51:50;;;;;;;13.63;10.13;;;14.90;99.90;;;;;;5098975;27;20051;-80
2023/08/30 06:54:16;;;;;;;10.98;9.43;;;15.00;99.90;;;;;;5134151;27;20079;-82
2023/08/30 06:56:56;;;;;;;13.45;9.98;;;15.00;99.90;;;;;;5133357;27;20042;-82
2023/08/30 06:59:21;;;;;;;14.93;10.45;;;15.10;99.90;;;;;;5134280;27;20517;-81
2023/08/30 07:01:47;;;;;;;14.93;10.02;;;15.20;99.90;;;;;;5116159;27;20051;-81
2023/08/30 07:04:13;;;;;;;15.25;10.27;;;15.10;99.90;;;;;;5133948;27;20051;-81
2023/08/30 07:06:38;;;;;;;12.13;9.77;;;15.10;99.90;;;;;;5098399;27;20127;-81
2023/08/30 07:09:06;;;;;;;10.75;9.18;;;15.20;99.90;;;;;;5134071;27;20426;-81
2023/08/30 07:11:32;;;;;;;10.88;9.05;;;15.10;99.90;;;;;;5133463;27;20051;-82
2023/08/30 07:13:57;;;;;;;11.57;10.10;;;15.10;99.90;;;;;;5133580;27;20058;-81
2023/08/30 07:16:23;;;;;;;12.60;9.70;;;15.10;99.90;;;;;;5133375;27;20045;-81
2023/08/30 07:18:50;;;;;;;12.43;9.57;;;15.20;99.90;;;;;;5133756;27;20046;-80
2023/08/30 07:21:15;;;;;;;13.55;9.52;;;15.20;99.90;;;;;;5133938;27;20449;-80
2023/08/30 07:23:41;;;;;;;13.02;9.43;;;15.20;99.90;;;;;;5133465;28;20122;-80
2023/08/30 07:26:07;;;;;;;11.20;9.75;;;15.30;99.90;;;;;;5111331;28;20044;-80
2023/08/30 07:28:33;;;;;;;14.57;10.65;;;15.40;99.90;;;;;;5113023;28;20047;-81
2023/08/30 07:31:03;;;;;;;12.52;9.95;;;15.50;99.90;;;;;;5112920;28;20044;-81
2023/08/30 07:33:29;;;;;;;14.70;10.43;;;15.50;99.90;;;;;;5112590;28;20055;-81
2023/08/30 07:35:54;;;;;;;14.07;10.27;;;15.50;99.90;;;;;;5112477;28;20233;-80
2023/08/30 07:38:20;;;;;;;13.57;10.45;;;15.50;99.90;;;;;;5111790;28;20056;-81
2023/08/30 07:40:46;;;;;;;13.52;10.07;;;15.60;99.90;;;;;;5112753;28;20104;-80
2023/08/30 07:43:11;;;;;;;12.15;9.63;;;15.60;99.90;;;;;;5112166;28;20047;-80
2023/08/30 07:45:37;;;;;;;13.13;9.95;;;15.70;99.90;;;;;;5112694;28;20119;-80
2023/08/30 07:48:03;;;;;;;12.50;9.65;;;15.80;99.90;;;;;;5112930;28;20050;-80
2023/08/30 07:50:28;;;;;;;16.02;11.38;;;15.90;99.90;;;;;;5113071;28;20495;-81
2023/08/30 07:52:54;;;;;;;12.38;10.15;;;16.10;99.90;;;;;;5112615;28;20044;-80
2023/08/30 07:55:20;;;;;;;13.63;9.45;;;16.10;99.90;;;;;;5112948;28;20063;-81
2023/08/30 07:57:46;;;;;;;12.63;9.32;;;16.30;99.90;;;;;;5114194;28;20395;-81
2023/08/30 08:00:12;;;;;;;12.55;9.40;;;16.40;99.90;;;;;;5116469;28;20039;-80
2023/08/30 08:02:38;;;;;;;11.32;9.55;;;16.50;99.90;;;;;;5116973;28;20152;-81
2023/08/30 08:05:04;;;;;;;13.55;9.65;;;16.60;99.90;;;;;;5115535;28;20054;-80
2023/08/30 08:07:30;;;;;;;12.57;9.50;;;16.60;99.90;;;;;;5116586;28;20368;-81
2023/08/30 08:09:57;;;;;;;11.27;9.32;;;16.60;99.90;;;;;;5116544;28;20393;-81
2023/08/30 08:12:23;;;;;;;13.68;10.30;;;16.70;99.90;;;;;;5116329;28;20039;-81
2023/08/30 08:14:48;;;;;;;13.20;9.10;;;16.70;99.90;;;;;;5116517;28;20093;-81
2023/08/30 08:17:14;;;;;;;16.67;9.27;;;16.70;99.90;;;;;;5116671;28;20035;-79
2023/08/30 08:19:42;;;;;;;10.88;9.60;;;16.80;99.90;;;;;;5119863;28;20123;-81
2023/08/30 08:22:08;;;;;;;11.23;9.07;;;17.00;99.90;;;;;;5133619;28;20050;-80
2023/08/30 08:24:34;;;;;;;10.25;8.43;;;17.30;99.90;;;;;;5118804;27;20473;-81
2023/08/30 08:27:01;;;;;;;10.10;8.93;;;17.60;99.90;;;;;;5136690;27;20465;-81
2023/08/30 08:29:27;;;;;;;13.40;10.07;;;17.80;99.90;;;;;;5136783;27;20051;-81
2023/08/30 08:31:53;;;;;;;11.75;9.20;;;17.90;99.90;;;;;;5136707;27;20391;-81
2023/08/30 08:34:19;;;;;;;14.85;10.57;;;17.80;99.90;;;;;;5136736;27;20126;-81
2023/08/30 08:36:45;;;;;;;13.48;9.65;;;17.70;99.90;;;;;;5118447;27;20051;-80
2023/08/30 08:39:11;;;;;;;15.63;10.20;;;17.70;99.90;;;;;;5136427;27;20047;-81
2023/08/30 08:41:41;;;;;;;12.07;9.40;;;17.70;99.90;;;;;;5136566;27;20092;-80
2023/08/30 08:44:08;;;;;;;13.52;9.32;;;17.60;99.90;;;;;;5136268;27;20043;-80
2023/08/30 08:46:36;;;;;;;14.55;9.77;;;17.70;99.90;;;;;;5136291;27;20039;-80
2023/08/30 08:49:09;;;;;;;10.98;9.50;;;17.70;99.90;;;;;;5136349;27;20457;-81
2023/08/30 08:51:35;;;;;;;13.02;9.40;;;17.70;99.90;;;;;;5136154;27;20496;-81
2023/08/30 08:54:03;;;;;;;11.50;8.98;;;17.70;99.90;;;;;;5136546;27;20093;-80
2023/08/30 08:56:32;;;;;;;12.85;9.20;;;17.70;99.90;;;;;;5136059;27;20051;-80
2023/08/30 08:58:58;;;;;;;12.02;9.05;;;17.80;99.90;;;;;;5136172;27;20053;-81
2023/08/30 09:01:25;;;;;;;14.52;8.95;;;17.90;99.90;;;;;;5136405;27;20047;-79
2023/08/30 09:03:51;;;;;;;8.82;7.60;;;18.00;99.90;;;;;;5136018;27;20039;-84
2023/08/30 09:06:18;;;;;;;11.48;9.05;;;18.10;99.90;;;;;;5118049;27;20075;-80
2023/08/30 09:08:44;;;;;;;12.05;8.70;;;18.10;99.90;;;;;;5136282;27;20111;-80
2023/08/30 09:11:09;;;;;;;11.55;8.85;;;18.20;99.90;;;;;;5117544;27;20443;-79
2023/08/30 09:13:35;;;;;;;11.63;9.27;;;18.20;99.90;;;;;;5135736;27;20082;-80
2023/08/30 09:16:02;;;;;;;11.27;8.57;;;18.30;99.90;;;;;;5135476;27;20129;-80
2023/08/30 09:18:28;;;;;;;10.68;8.18;;;18.20;99.90;;;;;;5135669;27;20066;-80
2023/08/30 09:21:08;;;;;;;11.80;9.30;;;18.20;99.90;;;;;;5117266;27;20091;-80
2023/08/30 09:23:34;;;;;;;12.50;9.68;;;18.10;99.90;;;;;;5135638;27;20039;-80
2023/08/30 09:26:00;;;;;;;10.27;8.98;;;18.00;99.90;;;;;;5135460;27;20055;-82
2023/08/30 09:28:26;;;;;;;10.63;8.48;;;17.90;99.90;;;;;;5135881;27;20043;-78
2023/08/30 09:30:52;;;;;;;12.27;8.73;;;17.80;99.90;;;;;;5136491;27;20046;-81
2023/08/30 09:33:44;;;;;;;10.85;8.30;;;17.80;99.90;;;;;;5136559;27;20062;-80
2023/08/30 09:36:11;;;;;;;11.75;8.27;;;17.70;99.90;;;;;;5114019;27;20518;-79
2023/08/30 09:38:37;;;;;;;11.40;8.68;;;17.70;99.90;;;;;;5135734;27;20054;-79
2023/08/30 09:41:04;;;;;;;10.23;8.02;;;17.60;99.90;;;;;;5135484;27;20122;-80
2023/08/30 09:43:30;;;;;;;11.35;8.90;;;17.60;99.90;;;;;;5117515;27;20047;-80
2023/08/30 09:45:57;;;;;;;10.27;8.80;;;17.40;99.90;;;;;;5117513;27;20049;-80
2023/08/30 09:48:28;;;;;;;12.45;8.35;;;17.30;99.90;;;;;;5135452;27;20088;-82
2023/08/30 09:50:54;;;;;;;9.07;8.15;;;17.20;99.90;;;;;;5135670;27;20110;-80
2023/08/30 09:53:25;;;;;;;11.63;8.43;;;17.10;99.90;;;;;;5100060;27;20484;-79
2023/08/30 09:55:52;;;;;;;10.27;8.15;;;17.00;99.90;;;;;;5117358;27;20043;-79
2023/08/30 09:58:20;;;;;;;9.85;7.32;;;16.90;99.90;;;;;;5134939;27;20058;-79
2023/08/30 10:00:46;;;;;;;9.70;8.25;;;16.70;99.90;;;;;;5134713;27;20369;-82
2023/08/30 10:03:12;;;;;;;11.25;8.95;;;16.60;99.90;;;;;;5135398;27;20183;-81
2023/08/30 10:05:40;;;;;;;10.80;8.10;;;16.40;99.90;;;;;;5116636;27;20093;-80
2023/08/30 10:08:07;;;;;;;12.35;9.15;;;16.30;99.90;;;;;;5116365;27;20079;-81
2023/08/30 10:10:34;;;;;;;11.48;9.85;;;16.30;99.90;;;;;;5134993;27;20059;-81
2023/08/30 10:13:01;;;;;;;10.90;8.80;;;16.30;99.90;;;;;;5134541;27;20043;-79
2023/08/30 10:15:31;;;;;;;10.13;8.73;;;16.30;99.90;;;;;;5134644;27;20115;-79
2023/08/30 10:17:58;;;;;;;12.57;8.98;;;16.40;99.90;;;;;;5134646;27;20126;-81
2023/08/30 10:20:25;;;;;;;14.63;9.90;;;16.80;99.90;;;;;;5134085;27;20043;-81
2023/08/30 10:22:52;;;;;;;13.80;9.40;;;17.20;99.90;;;;;;5134775;27;20047;-80
2023/08/30 10:25:29;;;;;;;10.95;8.75;;;17.60;99.90;;;;;;5134695;27;20094;-83
2023/08/30 10:27:56;;;;;;;8.32;7.53;;;18.20;99.90;;;;;;5134434;27;20044;-81
2023/08/30 10:30:23;;;;;;;10.57;7.75;;;18.90;99.90;;;;;;5134236;27;20055;-83
2023/08/30 10:32:49;;;;;;;8.10;7.30;;;19.40;99.90;;;;;;5134735;27;20043;-81
2023/08/30 10:35:17;;;;;;;7.82;6.30;;;19.50;99.90;;;;;;5134305;27;20100;-81
2023/08/30 10:37:54;;;;;;;9.52;6.97;;;19.40;99.90;;;;;;5115917;27;20043;-80
2023/08/30 10:40:22;;;;;;;7.15;6.30;;;19.10;99.90;;;;;;5134639;27;20140;-80
2023/08/30 10:42:58;;;;;;;8.00;5.72;;;18.90;99.90;;;;;;5133945;27;20456;-83
2023/08/30 10:45:24;;;;;;;5.85;5.00;;;18.70;99.90;;;;;;5116113;27;20055;-81
2023/08/30 10:47:56;;;;;;;6.13;5.53;;;18.60;99.90;;;;;;5133798;27;20081;-81
2023/08/30 10:50:31;;;;;;;8.05;5.68;;;18.60;99.90;;;;;;5134051;27;20035;-82
2023/08/30 10:52:58;;;;;;;8.25;6.90;;;18.50;99.90;;;;;;5133958;27;20039;-83
2023/08/30 10:55:24;;;;;;;8.25;6.88;;;18.60;99.90;;;;;;5115637;27;20050;-81
2023/08/30 10:57:59;;;;;;;8.30;7.18;;;18.60;99.90;;;;;;5133727;27;20039;-81
2023/08/30 11:00:27;;;;;;;8.50;6.75;;;18.60;99.90;;;;;;5115675;27;20043;-82
2023/08/30 11:02:53;;;;;;;8.45;6.55;;;18.70;99.90;;;;;;5133420;27;20054;-82
2023/08/30 11:05:25;;;;;;;9.15;7.18;;;18.70;99.90;;;;;;5133708;27;20058;-82
2023/08/30 11:07:51;;;;;;;7.65;6.88;;;18.70;99.90;;;;;;5133994;27;20043;-82
2023/08/30 11:10:18;;;;;;;7.85;6.90;;;18.70;99.90;;;;;;5133310;27;20468;-82
2023/08/30 11:12:45;;;;;;;10.25;7.07;;;18.90;99.90;;;;;;5134131;27;20082;-82
2023/08/30 11:15:15;;;;;;;7.15;6.07;;;19.00;99.90;;;;;;5133550;27;20122;-82
2023/08/30 11:17:42;;;;;;;7.60;5.95;;;19.00;99.90;;;;;;5133629;27;20452;-81
2023/08/30 11:20:09;;;;;;;7.28;5.68;;;18.80;99.90;;;;;;5133421;27;20043;-84
2023/08/30 11:22:40;;;;;;;8.95;6.65;;;18.70;99.90;;;;;;5115313;27;20477;-81
2023/08/30 11:25:08;;;;;;;7.38;6.47;;;18.60;99.90;;;;;;5098606;28;20108;-79
2023/08/30 11:27:34;;;;;;;6.53;5.65;;;18.50;99.90;;;;;;5133455;28;20070;-81
2023/08/30 11:30:05;;;;;;;8.10;6.57;;;18.30;99.90;;;;;;5133791;27;20460;-82
2023/08/30 11:32:39;;;;;;;7.68;6.85;;;18.20;99.90;;;;;;5137758;27;20443;-81
2023/08/30 11:35:06;;;;;;;8.43;6.88;;;18.00;99.90;;;;;;5137566;27;20089;-83
2023/08/30 11:37:32;;;;;;;7.15;6.25;;;17.90;99.90;;;;;;5137588;27;20043;-83
2023/08/30 11:40:00;;;;;;;7.70;7.00;;;17.80;99.90;;;;;;5137644;27;20079;-83
2023/08/30 11:42:26;;;;;;;7.82;6.93;;;17.70;99.90;;;;;;5137542;27;20378;-84
2023/08/30 11:44:52;;;;;;;10.15;7.47;;;17.70;99.90;;;;;;5137554;27;20050;-81
2023/08/30 11:47:20;;;;;;;8.52;7.15;;;17.60;99.90;;;;;;5137236;27;20046;-82
2023/08/30 11:49:48;;;;;;;7.78;7.00;;;17.50;99.90;;;;;;5137385;27;20047;-83
2023/08/30 11:52:14;;;;;;;8.80;7.55;;;17.40;99.90;;;;;;5137832;27;20196;-82
2023/08/30 11:54:40;;;;;;;10.45;8.50;;;17.30;99.90;;;;;;5137253;27;20148;-81
2023/08/30 11:57:06;;;;;;;9.30;7.85;;;17.30;99.90;;;;;;5119269;27;20398;-84
2023/08/30 11:59:35;;;;;;;11.70;8.90;;;17.20;99.90;;;;;;5137154;27;20050;-82
2023/08/30 12:02:03;;;;;;;9.15;8.25;;;17.10;99.90;;;;;;5137079;27;20043;-83
2023/08/30 12:04:30;;;;;;;9.45;7.20;;;17.00;99.90;;;;;;5137090;27;20047;-82
2023/08/30 12:06:56;;;;;;;11.43;8.88;;;16.90;99.90;;;;;;5136947;27;20047;-82
2023/08/30 12:09:22;;;;;;;10.23;8.80;;;16.80;99.90;;;;;;5137230;27;20103;-83
2023/08/30 12:11:49;;;;;;;8.68;7.82;;;16.80;99.90;;;;;;5136847;27;20047;-82
2023/08/30 12:14:15;;;;;;;10.57;8.13;;;16.70;99.90;;;;;;5118913;27;20051;-81
2023/08/30 12:16:41;;;;;;;8.68;7.78;;;16.70;99.90;;;;;;5118833;27;20410;-83
2023/08/30 12:19:10;;;;;;;10.02;8.35;;;16.60;99.90;;;;;;5136697;27;20047;-82
2023/08/30 12:21:41;;;;;;;9.30;7.53;;;16.60;99.90;;;;;;5137130;27;20043;-82
2023/08/30 12:24:07;;;;;;;9.00;8.10;;;16.60;99.90;;;;;;5136664;27;20035;-82
2023/08/30 12:26:33;;;;;;;12.68;7.57;;;16.60;99.90;;;;;;5136932;27;20058;-81
2023/08/30 12:28:59;;;;;;;12.80;7.40;;;16.60;99.90;;;;;;5136701;27;20557;-83
2023/08/30 12:31:24;;;;;;;10.27;7.80;;;16.50;99.90;;;;;;5118595;27;20428;-82